Time;durP1;ratioP1;P1;durP2;ratioP2;P2;SDS_P1;SDS_P2;PMS_P1;PMS_P2;Temp;Humidity;BMP_temperature;BMP_pressure;BME280_temperature;BME280_humidity;BME280_pressure;Samples;Min_cycle;Max_cycle;Signal;HPM_P1;HPM_P2
2023/01/26 00:00:52;;;;;;;5.27;2.60;;;;;;;4.28;98.42;102477.97;6101588;23;20481;-91
2023/01/26 00:03:20;;;;;;;3.70;1.90;;;;;;;4.30;98.18;102492.25;6077965;23;20395;-90
2023/01/26 00:05:49;;;;;;;5.20;2.83;;;;;;;4.30;97.69;102481.44;6102003;23;20741;-92
2023/01/26 00:08:18;;;;;;;4.00;1.60;;;;;;;4.35;97.63;102490.09;6078249;23;20481;-92
2023/01/26 00:10:49;;;;;;;6.47;1.50;;;;;;;4.33;97.50;102494.75;6077847;23;20414;-90
2023/01/26 00:13:18;;;;;;;3.93;1.87;;;;;;;4.37;97.30;102498.97;6079112;23;20409;-90
2023/01/26 00:15:46;;;;;;;4.10;1.93;;;;;;;4.33;97.65;102500.16;6078310;23;20417;-91
2023/01/26 00:18:14;;;;;;;3.00;1.97;;;;;;;4.34;97.81;102491.06;6078720;23;20696;-91
2023/01/26 00:20:41;;;;;;;3.93;2.00;;;;;;;4.39;97.64;102483.50;6078090;23;20434;-92
2023/01/26 00:23:10;;;;;;;3.57;1.93;;;;;;;4.42;97.60;102494.97;6076894;23;20433;-90
2023/01/26 00:25:41;;;;;;;3.77;2.10;;;;;;;4.34;97.32;102472.13;6078099;23;20398;-91
2023/01/26 00:28:10;;;;;;;3.07;2.00;;;;;;;4.50;97.15;102497.09;6078222;23;20401;-90
2023/01/26 00:30:41;;;;;;;3.57;2.40;;;;;;;4.54;97.07;102492.34;6101419;23;20897;-90
2023/01/26 00:33:10;;;;;;;3.80;2.77;;;;;;;4.56;97.24;102484.97;6077682;23;20438;-92
2023/01/26 00:35:43;;;;;;;3.83;2.20;;;;;;;4.58;97.03;102481.19;6126274;23;20406;-91
2023/01/26 00:38:12;;;;;;;3.70;2.23;;;;;;;4.65;96.87;102485.13;6079581;23;20505;-91
2023/01/26 00:40:40;;;;;;;8.30;1.90;;;;;;;4.71;96.25;102487.41;6102166;23;20599;-91
2023/01/26 00:43:07;;;;;;;2.10;1.60;;;;;;;4.74;96.25;102481.78;6077954;23;20386;-90
2023/01/26 00:45:38;;;;;;;3.03;1.57;;;;;;;4.77;96.02;102472.56;6077755;23;20410;-92
2023/01/26 00:48:06;;;;;;;3.77;2.00;;;;;;;4.74;95.45;102465.53;6101454;23;20386;-91
2023/01/26 00:50:33;;;;;;;5.60;2.50;;;;;;;4.75;95.70;102452.84;6078721;23;20407;-91
2023/01/26 00:53:01;;;;;;;5.07;2.33;;;;;;;4.76;95.79;102455.44;6101687;23;20402;-90
2023/01/26 00:55:32;;;;;;;4.77;2.90;;;;;;;4.75;95.62;102453.72;6101541;23;20444;-91
2023/01/26 00:58:04;;;;;;;5.40;2.70;;;;;;;4.72;96.03;102459.34;6078988;23;20390;-91
2023/01/26 01:00:34;;;;;;;5.90;3.80;;;;;;;4.64;96.30;102463.59;6078334;23;20437;-90
2023/01/26 01:03:02;;;;;;;7.73;4.00;;;;;;;4.55;96.54;102464.28;6101873;23;20405;-91
2023/01/26 01:05:30;;;;;;;4.40;2.90;;;;;;;4.37;96.92;102453.81;6101880;23;20399;-91
2023/01/26 01:07:57;;;;;;;6.43;3.50;;;;;;;4.27;97.54;102441.06;6101837;23;20858;-89
2023/01/26 01:10:28;;;;;;;5.50;3.60;;;;;;;4.27;97.75;102451.88;6078091;23;20505;-90
2023/01/26 01:12:56;;;;;;;6.60;4.13;;;;;;;4.15;98.32;102443.69;6102303;23;20418;-91
2023/01/26 01:15:23;;;;;;;5.47;3.97;;;;;;;4.08;98.53;102447.78;6078836;23;20394;-90
2023/01/26 01:17:52;;;;;;;5.20;2.70;;;;;;;4.02;98.89;102442.84;6101463;23;20405;-89
2023/01/26 01:20:19;;;;;;;7.80;3.90;;;;;;;3.84;98.70;102433.34;6077697;23;20430;-90
2023/01/26 01:22:47;;;;;;;8.73;3.70;;;;;;;3.81;98.89;102447.06;6101820;23;20398;-91
2023/01/26 01:25:14;;;;;;;5.40;3.30;;;;;;;3.80;99.42;102453.44;6101476;23;20417;-90
2023/01/26 01:27:42;;;;;;;6.10;3.67;;;;;;;3.74;99.31;102453.88;6101613;23;20413;-91
2023/01/26 01:30:10;;;;;;;6.80;3.83;;;;;;;3.69;99.50;102450.63;6077549;23;20445;-90
2023/01/26 01:32:38;;;;;;;6.37;3.23;;;;;;;3.63;100.00;102451.94;6078450;23;20474;-91
2023/01/26 01:35:06;;;;;;;8.07;3.70;;;;;;;3.64;100.00;102455.50;6077915;23;20473;-91
2023/01/26 01:37:38;;;;;;;6.00;3.40;;;;;;;3.62;100.00;102460.16;6078401;23;20382;-91
2023/01/26 01:40:11;;;;;;;7.97;3.73;;;;;;;3.55;100.00;102448.88;6125855;23;20390;-90
2023/01/26 01:42:46;;;;;;;5.33;3.00;;;;;;;3.55;100.00;102450.72;6078173;23;20390;-91
2023/01/26 01:45:25;;;;;;;6.40;2.53;;;;;;;3.53;100.00;102447.25;6101856;23;20452;-90
2023/01/26 01:47:54;;;;;;;4.10;2.30;;;;;;;3.47;100.00;102451.25;6126076;23;20382;-91
2023/01/26 01:50:23;;;;;;;3.63;2.30;;;;;;;3.33;100.00;102438.69;6078790;23;20442;-91
2023/01/26 01:52:52;;;;;;;3.60;2.23;;;;;;;3.20;100.00;102428.84;6125989;23;20784;-91
2023/01/26 01:55:20;;;;;;;4.37;2.17;;;;;;;3.25;100.00;102435.66;6092901;23;20405;-88
2023/01/26 01:57:51;;;;;;;4.73;2.70;;;;;;;3.22;100.00;102435.88;6101499;23;20394;-89
2023/01/26 02:00:22;;;;;;;4.57;2.80;;;;;;;3.26;100.00;102442.81;6104526;23;20398;-91
2023/01/26 02:03:11;;;;;;;4.37;2.97;;;;;;;3.26;100.00;102437.41;6077667;23;20392;-90
2023/01/26 02:06:01;;;;;;;4.80;2.60;;;;;;;3.28;100.00;102435.44;6085908;23;20437;-91
2023/01/26 02:08:34;;;;;;;3.67;2.50;;;;;;;3.09;100.00;102413.34;6126885;23;20405;-89
2023/01/26 02:11:08;;;;;;;3.63;2.20;;;;;;;3.17;100.00;102419.09;6078586;23;20386;-90
2023/01/26 02:13:36;;;;;;;4.20;2.60;;;;;;;3.17;100.00;102427.22;6102395;23;20390;-90
2023/01/26 02:16:11;;;;;;;5.67;2.73;;;;;;;3.09;100.00;102421.44;6077128;23;20416;-91
2023/01/26 02:18:40;;;;;;;5.67;3.00;;;;;;;3.06;100.00;102416.28;6077647;23;20457;-90
2023/01/26 02:21:09;;;;;;;5.07;2.80;;;;;;;3.02;100.00;102426.41;6077390;23;20826;-90
2023/01/26 02:23:58;;;;;;;5.47;2.40;;;;;;;3.03;100.00;102424.59;6077677;23;20413;-91
2023/01/26 02:26:29;;;;;;;4.40;2.63;;;;;;;2.93;100.00;102423.47;6100733;23;20722;-90
2023/01/26 02:29:02;;;;;;;4.13;2.30;;;;;;;2.98;100.00;102426.72;6100517;23;20438;-91
2023/01/26 02:31:33;;;;;;;5.63;3.40;;;;;;;2.96;100.00;102429.53;6125997;23;20421;-90
2023/01/26 02:34:05;;;;;;;4.83;3.00;;;;;;;2.91;100.00;102420.00;6101718;23;20386;-91
2023/01/26 02:36:33;;;;;;;4.90;3.30;;;;;;;2.89;100.00;102413.81;6078000;23;20884;-91
2023/01/26 02:39:25;;;;;;;6.27;3.40;;;;;;;2.94;100.00;102427.91;6078411;23;20393;-91
2023/01/26 02:44:40;;;;;;;10.90;6.23;;;;;;;2.85;100.00;102404.22;6105239;23;20409;-90
2023/01/26 02:47:15;;;;;;;9.73;5.77;;;;;;;2.86;100.00;102412.22;6126222;23;20788;-89
2023/01/26 02:49:49;;;;;;;10.23;4.13;;;;;;;2.82;100.00;102399.91;6078907;23;20437;-90
2023/01/26 02:52:22;;;;;;;6.77;3.93;;;;;;;2.82;100.00;102404.44;6126801;23;20410;-90
2023/01/26 02:57:36;;;;;;;7.23;4.00;;;;;;;2.73;100.00;102395.09;6107257;23;20409;-90
2023/01/26 03:00:07;;;;;;;6.00;2.57;;;;;;;2.58;100.00;102377.25;6103061;23;20383;-89
2023/01/26 03:02:36;;;;;;;4.73;2.90;;;;;;;2.68;100.00;102392.72;6102499;23;20410;-90
2023/01/26 03:05:06;;;;;;;6.73;3.83;;;;;;;2.61;100.00;102385.13;6078562;23;20408;-89
2023/01/26 03:07:34;;;;;;;5.73;3.50;;;;;;;2.68;100.00;102402.66;6079323;23;20409;-91
2023/01/26 03:10:02;;;;;;;6.27;3.90;;;;;;;2.65;100.00;102398.34;6103072;23;20449;-91
2023/01/26 03:12:30;;;;;;;6.77;4.17;;;;;;;2.63;100.00;102402.97;6079310;23;20386;-90
2023/01/26 03:17:48;;;;;;;8.93;3.50;;;;;;;2.60;100.00;102400.47;6108011;23;20382;-91
2023/01/26 03:28:34;;;;;;;6.10;3.63;;;;;;;2.51;100.00;102378.59;6105642;23;20402;-91
2023/01/26 03:31:01;;;;;;;6.90;3.70;;;;;;;2.54;100.00;102384.66;6079484;23;20446;-91
2023/01/26 03:33:32;;;;;;;6.70;4.30;;;;;;;2.54;100.00;102379.25;6103100;23;20467;-90
2023/01/26 03:36:00;;;;;;;5.13;2.63;;;;;;;2.50;100.00;102372.38;6102409;23;20410;-90
2023/01/26 03:38:30;;;;;;;6.70;3.20;;;;;;;2.53;100.00;102366.75;6102640;23;20398;-91
2023/01/26 03:57:45;;;;;;;5.07;2.83;;;;;;;2.44;100.00;102364.66;6127595;23;20390;-91
2023/01/26 04:00:28;;;;;;;3.97;2.50;;;;;;;2.49;100.00;102373.34;6080770;23;20409;-91
2023/01/26 04:08:47;;;;;;;6.97;2.77;;;;;;;2.42;100.00;102363.91;6109055;23;20414;-90
2023/01/26 04:11:25;;;;;;;3.47;2.20;;;;;;;2.44;100.00;102359.28;6127264;23;20751;-90
2023/01/26 04:22:23;;;;;;;5.00;2.40;;;;;;;2.31;100.00;102345.72;6112046;23;20397;-91
2023/01/26 04:24:51;;;;;;;4.50;2.17;;;;;;;2.26;100.00;102341.59;6083248;23;20593;-89
2023/01/26 04:27:19;;;;;;;6.20;2.50;;;;;;;2.20;100.00;102331.22;6103688;23;20473;-90
2023/01/26 04:29:47;;;;;;;5.03;2.77;;;;;;;2.23;100.00;102341.81;6078095;23;20437;-90
2023/01/26 04:32:15;;;;;;;3.80;2.20;;;;;;;2.22;100.00;102345.47;6102131;23;20390;-90
2023/01/26 04:34:42;;;;;;;7.73;2.80;;;;;;;2.16;100.00;102324.28;6101382;23;20409;-90
2023/01/26 04:37:11;;;;;;;4.37;2.40;;;;;;;2.17;100.00;102326.88;6078165;23;20394;-91
2023/01/26 04:39:40;;;;;;;4.33;2.47;;;;;;;2.13;100.00;102321.78;6102192;23;20382;-91
2023/01/26 04:42:07;;;;;;;3.87;2.57;;;;;;;2.01;100.00;102300.06;6102523;23;20449;-91
2023/01/26 04:44:40;;;;;;;4.67;2.57;;;;;;;2.11;100.00;102318.34;6101899;23;20382;-91
2023/01/26 04:47:09;;;;;;;4.03;2.47;;;;;;;2.11;100.00;102323.75;6078106;23;20402;-91
2023/01/26 04:49:38;;;;;;;6.30;2.30;;;;;;;2.06;100.00;102315.94;6101664;23;21018;-90
2023/01/26 04:52:07;;;;;;;4.00;2.30;;;;;;;2.02;100.00;102323.38;6079539;23;20386;-90
2023/01/26 04:54:36;;;;;;;3.87;2.30;;;;;;;2.00;100.00;102319.03;6126666;23;20394;-91
2023/01/26 04:57:04;;;;;;;3.73;2.47;;;;;;;1.94;100.00;102314.91;6101218;23;20440;-90
2023/01/26 04:59:31;;;;;;;4.07;2.00;;;;;;;1.91;100.00;102315.13;6078057;23;20453;-90
2023/01/26 05:02:00;;;;;;;3.20;2.13;;;;;;;1.86;100.00;102301.06;6078267;23;20406;-89
2023/01/26 05:04:28;;;;;;;4.50;2.60;;;;;;;1.91;100.00;102308.88;6126314;23;20768;-90
2023/01/26 05:06:56;;;;;;;3.70;2.00;;;;;;;1.92;100.00;102314.16;6077500;23;20461;-89
2023/01/26 05:09:24;;;;;;;3.80;2.27;;;;;;;1.90;100.00;102313.38;6101244;23;20745;-91
2023/01/26 05:11:52;;;;;;;3.67;2.30;;;;;;;1.86;100.00;102305.59;6078399;23;20857;-90
2023/01/26 05:14:21;;;;;;;4.23;1.90;;;;;;;1.91;100.00;102309.72;6102170;23;20386;-90
2023/01/26 05:16:48;;;;;;;4.63;2.40;;;;;;;1.89;100.00;102311.66;6102550;23;20398;-90
2023/01/26 05:19:16;;;;;;;10.90;4.60;;;;;;;1.89;100.00;102308.09;6077928;23;20435;-90
2023/01/26 05:21:43;;;;;;;15.30;7.40;;;;;;;1.89;100.00;102313.47;6077548;23;20460;-90
2023/01/26 05:24:17;;;;;;;13.33;6.20;;;;;;;1.86;100.00;102309.16;6077575;23;20402;-90
2023/01/26 05:26:44;;;;;;;13.07;5.30;;;;;;;1.83;100.00;102303.97;6100957;23;20409;-90
2023/01/26 05:29:12;;;;;;;11.60;5.40;;;;;;;1.84;100.00;102319.16;6101955;23;20402;-91
2023/01/26 05:31:40;;;;;;;10.47;4.77;;;;;;;1.74;100.00;102293.75;6073040;23;20482;-90
2023/01/26 05:34:08;;;;;;;7.13;4.00;;;;;;;1.85;100.00;102309.25;6096160;23;20417;-89
2023/01/26 05:36:39;;;;;;;7.13;3.50;;;;;;;1.88;100.00;102301.84;6075186;23;20417;-91
2023/01/26 05:39:10;;;;;;;7.23;3.70;;;;;;;1.80;100.00;102296.06;6124359;23;20395;-89
2023/01/26 05:41:39;;;;;;;5.93;3.10;;;;;;;1.72;100.00;102276.84;6100130;23;20394;-90
2023/01/26 05:44:07;;;;;;;8.47;4.03;;;;;;;1.84;100.00;102308.38;6077922;23;20806;-91
2023/01/26 05:46:37;;;;;;;6.53;3.20;;;;;;;1.78;100.00;102289.91;6101895;23;20383;-89
2023/01/26 05:49:05;;;;;;;7.17;3.83;;;;;;;1.80;100.00;102279.03;6125900;23;20401;-91
2023/01/26 05:51:35;;;;;;;7.33;3.33;;;;;;;1.87;100.00;102289.31;6083796;23;20434;-89
2023/01/26 05:54:03;;;;;;;6.70;3.17;;;;;;;1.88;100.00;102282.09;6148439;23;20398;-89
2023/01/26 05:56:30;;;;;;;8.57;3.43;;;;;;;1.90;100.00;102291.81;6090855;23;20402;-89
2023/01/26 05:59:00;;;;;;;4.17;2.67;;;;;;;1.85;100.00;102283.16;6078270;23;20453;-90
2023/01/26 06:01:32;;;;;;;7.73;3.03;;;;;;;1.91;100.00;102293.56;6102442;23;20726;-90
2023/01/26 06:04:04;;;;;;;4.43;2.60;;;;;;;1.87;100.00;102285.75;6102180;23;20391;-89
2023/01/26 06:06:34;;;;;;;5.53;2.87;;;;;;;1.88;100.00;102282.97;6078684;23;20498;-91
2023/01/26 06:09:03;;;;;;;6.10;2.47;;;;;;;1.81;100.00;102284.31;6078530;23;20971;-91
2023/01/26 06:11:31;;;;;;;4.70;2.57;;;;;;;1.77;100.00;102277.38;6077284;23;20968;-91
2023/01/26 06:13:59;;;;;;;4.73;2.57;;;;;;;1.76;100.00;102277.50;6102186;23;20891;-90
2023/01/26 06:16:27;;;;;;;8.00;2.70;;;;;;;1.71;100.00;102259.81;6101412;23;20445;-91
2023/01/26 06:18:56;;;;;;;3.90;2.00;;;;;;;1.77;100.00;102271.13;6077310;23;20390;-91
2023/01/26 06:21:23;;;;;;;3.87;2.63;;;;;;;1.64;100.00;102249.50;6101642;23;20437;-89
2023/01/26 06:23:53;;;;;;;5.90;2.93;;;;;;;1.70;100.00;102263.47;6103044;23;20417;-91
2023/01/26 06:26:23;;;;;;;8.57;4.93;;;;;;;1.62;100.00;102263.09;6102337;23;20398;-89
2023/01/26 06:28:52;;;;;;;6.43;4.33;;;;;;;1.60;100.00;102264.16;6078429;23;20648;-90
2023/01/26 06:31:28;;;;;;;9.10;4.30;;;;;;;1.49;100.00;102242.44;6079508;23;20445;-89
2023/01/26 06:34:01;;;;;;;9.53;5.37;;;;;;;1.52;100.00;102250.31;6128350;23;20401;-90
2023/01/26 06:36:32;;;;;;;10.80;6.20;;;;;;;1.46;100.00;102251.56;6127375;23;20406;-90
2023/01/26 06:38:59;;;;;;;10.20;5.83;;;;;;;1.46;100.00;102258.78;6103305;23;20501;-91
2023/01/26 06:41:27;;;;;;;11.43;5.50;;;;;;;1.46;100.00;102248.00;6080205;23;20723;-90
2023/01/26 06:43:56;;;;;;;11.90;6.50;;;;;;;1.50;100.00;102260.31;6124665;23;20402;-91
2023/01/26 06:46:26;;;;;;;15.97;6.20;;;;;;;1.45;100.00;102247.16;6098069;23;20402;-90
2023/01/26 06:48:54;;;;;;;10.50;5.73;;;;;;;1.49;100.00;102253.22;6124235;23;20477;-90
2023/01/26 06:51:58;;;;;;;10.77;5.90;;;;;;;1.52;100.00;102266.47;6078845;23;20476;-90
2023/01/26 06:54:25;;;;;;;7.93;4.83;;;;;;;1.49;100.00;102263.97;6098258;23;20480;-89
2023/01/26 06:56:54;;;;;;;6.27;4.23;;;;;;;1.47;100.00;102271.28;6102811;23;20390;-90
2023/01/26 06:59:21;;;;;;;10.53;3.30;;;;;;;1.47;100.00;102271.28;6102234;23;20410;-90
2023/01/26 07:01:50;;;;;;;5.83;3.13;;;;;;;1.42;100.00;102258.09;6079578;23;20396;-90
2023/01/26 07:04:18;;;;;;;5.80;2.93;;;;;;;1.42;100.00;102251.84;6103149;23;20390;-89
2023/01/26 07:06:46;;;;;;;5.27;2.70;;;;;;;1.35;100.00;102246.84;6102682;23;20427;-89
2023/01/26 07:09:14;;;;;;;4.77;2.23;;;;;;;1.33;100.00;102259.56;6102783;23;20406;-90
2023/01/26 07:11:41;;;;;;;6.80;3.50;;;;;;;1.34;100.00;102255.06;6078752;23;20430;-89
2023/01/26 07:14:09;;;;;;;5.40;3.30;;;;;;;1.27;100.00;102234.84;6079090;23;20489;-88
2023/01/26 07:16:37;;;;;;;7.97;3.50;;;;;;;1.26;100.00;102242.06;6102865;23;20908;-90
2023/01/26 07:19:06;;;;;;;6.13;3.33;;;;;;;1.31;100.00;102249.84;6079119;23;20416;-89
2023/01/26 07:21:37;;;;;;;4.87;2.60;;;;;;;1.38;100.00;102256.56;6079716;23;20424;-89
2023/01/26 07:24:08;;;;;;;5.63;3.03;;;;;;;1.36;100.00;102253.97;6103036;23;20414;-90
2023/01/26 07:26:35;;;;;;;8.20;3.30;;;;;;;1.37;100.00;102246.75;6078476;23;20500;-89
2023/01/26 07:29:10;;;;;;;8.43;2.93;;;;;;;1.35;100.00;102241.47;6102607;23;20445;-90
2023/01/26 07:31:40;;;;;;;10.33;3.30;;;;;;;1.36;100.00;102248.59;6102430;23;20449;-90
2023/01/26 07:34:09;;;;;;;9.80;3.10;;;;;;;1.35;100.00;102246.84;6102973;23;20469;-91
2023/01/26 07:36:38;;;;;;;4.60;2.40;;;;;;;1.36;100.00;102253.97;6079882;23;20884;-89
2023/01/26 07:39:06;;;;;;;15.03;3.47;;;;;;;1.34;100.00;102249.66;6102925;23;20486;-94
2023/01/26 07:42:13;;;;;;;24.67;3.80;;;;;;;1.37;100.00;102254.84;6105447;23;20420;-89
2023/01/26 07:44:44;;;;;;;12.83;3.13;;;;;;;1.37;100.00;102247.63;6127009;23;20418;-94
2023/01/26 07:47:24;;;;;;;9.17;3.17;;;;;;;1.38;100.00;102261.94;6103003;23;20409;-94
2023/01/26 07:49:52;;;;;;;3.87;3.03;;;;;;;1.28;100.00;102234.75;6103741;23;20393;-94
2023/01/26 07:52:28;;;;;;;10.97;3.37;;;;;;;1.36;100.00;102245.03;6079496;23;20476;-93
2023/01/26 07:55:16;;;;;;;18.10;4.13;;;;;;;1.39;100.00;102247.53;6080157;23;20409;-95
2023/01/26 07:57:43;;;;;;;7.00;3.27;;;;;;;1.30;100.00;102238.22;6102954;23;20460;-93
2023/01/26 08:00:19;;;;;;;7.60;3.53;;;;;;;1.32;100.00;102240.81;6079411;23;20410;-92
2023/01/26 08:02:51;;;;;;;4.63;3.50;;;;;;;1.27;100.00;102233.03;6079985;23;20402;-95
2023/01/26 08:05:22;;;;;;;7.27;3.43;;;;;;;1.29;100.00;102233.78;6082605;23;20385;-95
2023/01/26 08:08:28;;;;;;;6.13;4.00;;;;;;;1.41;100.00;102255.50;6080861;23;20465;-95
2023/01/26 08:14:37;;;;;;;38.17;9.40;;;;;;;1.42;100.00;102252.72;6129099;23;20421;-89
2023/01/26 08:17:16;;;;;;;53.30;18.03;;;;;;;1.39;100.00;102237.63;6081661;23;20416;-90
2023/01/26 08:19:45;;;;;;;115.80;34.60;;;;;;;1.35;100.00;102230.69;6078235;23;20465;-89
2023/01/26 08:22:18;;;;;;;100.00;32.87;;;;;;;1.44;100.00;102229.25;6079489;23;20406;-93
2023/01/26 08:24:45;;;;;;;149.00;45.73;;;;;;;1.60;100.00;102245.28;6101925;23;20431;-89
2023/01/26 08:27:15;;;;;;;114.70;34.33;;;;;;;1.70;100.00;102251.81;6101695;23;20409;-90
2023/01/26 08:29:47;;;;;;;81.53;19.17;;;;;;;1.84;100.00;102256.31;6125431;23;20497;-89
2023/01/26 08:32:15;;;;;;;71.90;11.53;;;;;;;1.90;100.00;102253.22;6124597;23;20835;-90
2023/01/26 09:16:59;;;;;;;33.67;18.40;;;;;;;3.77;100.00;102270.66;6097820;23;20927;-92
2023/01/26 09:19:29;;;;;;;36.37;14.87;;;;;;;3.96;100.00;102264.75;6026594;23;20413;-93
2023/01/26 09:22:01;;;;;;;23.83;10.77;;;;;;;4.13;100.00;102266.22;6050706;23;20871;-92
2023/01/26 09:24:29;;;;;;;47.93;22.07;;;;;;;4.28;100.00;102258.78;6049180;23;20753;-92
2023/01/26 09:27:01;;;;;;;27.97;12.10;;;;;;;4.51;100.00;102276.84;6049438;23;20425;-91
2023/01/26 09:29:42;;;;;;;58.43;29.60;;;;;;;4.73;100.00;102282.34;6051616;23;20423;-92
2023/01/26 09:32:18;;;;;;;15.93;7.83;;;;;;;5.16;100.00;102273.59;6096408;23;20446;-92
2023/01/26 09:34:50;;;;;;;9.03;5.50;;;;;;;5.81;100.00;102270.97;6072878;23;20406;-92
2023/01/26 09:37:22;;;;;;;10.70;5.73;;;;;;;6.34;100.00;102256.72;6049118;23;20442;-93
2023/01/26 09:39:56;;;;;;;10.37;6.37;;;;;;;6.83;100.00;102237.94;6072060;23;20450;-93
2023/01/26 09:43:04;;;;;;;9.40;5.30;;;;;;;7.26;100.00;102254.06;6073087;23;20411;-92
2023/01/26 09:46:04;;;;;;;14.73;7.00;;;;;;;7.64;100.00;102247.06;6053375;23;20490;-93
2023/01/26 09:48:35;;;;;;;11.70;6.00;;;;;;;7.97;100.00;102256.75;6077242;23;20398;-92
2023/01/26 09:51:14;;;;;;;16.13;6.37;;;;;;;8.20;100.00;102269.13;6073436;23;20435;-92
2023/01/26 09:54:15;;;;;;;13.00;6.40;;;;;;;8.47;100.00;102263.00;6096615;23;20414;-92
2023/01/26 09:56:55;;;;;;;10.63;6.23;;;;;;;8.66;100.00;102253.97;5932859;24;20421;-92
2023/01/26 09:59:56;;;;;;;11.60;5.77;;;;;;;8.88;100.00;102272.75;5932516;24;20415;-93
2023/01/26 10:02:51;;;;;;;23.53;6.90;;;;;;;9.08;100.00;102265.41;5913881;24;20489;-93
2023/01/26 10:05:27;;;;;;;11.37;6.33;;;;;;;9.23;100.00;102271.28;5933139;24;20418;-92
2023/01/26 10:08:09;;;;;;;10.33;6.13;;;;;;;9.43;100.00;102270.19;5933187;24;20411;-92
2023/01/26 10:10:40;;;;;;;14.30;5.70;;;;;;;9.56;100.00;102265.28;5932373;24;20423;-92
2023/01/26 10:13:14;;;;;;;19.23;6.00;;;;;;;9.64;100.00;102279.00;5910981;24;20415;-93
2023/01/26 10:15:44;;;;;;;10.93;5.23;;;;;;;9.76;100.00;102262.44;5910247;24;20441;-93
2023/01/26 10:18:21;;;;;;;9.57;4.70;;;;;;;9.85;100.00;102265.13;5911401;24;20419;-92
2023/01/26 10:20:59;;;;;;;11.13;4.77;;;;;;;9.96;100.00;102253.16;5910654;24;20411;-92
2023/01/26 10:23:35;;;;;;;10.90;5.30;;;;;;;10.07;100.00;102263.00;5932838;24;20463;-93
2023/01/26 10:26:14;;;;;;;9.87;5.30;;;;;;;10.22;100.00;102276.00;5909989;24;20467;-92
2023/01/26 10:28:45;;;;;;;11.73;4.40;;;;;;;10.26;100.00;102257.44;5932683;24;20425;-92
2023/01/26 10:31:18;;;;;;;10.03;4.80;;;;;;;10.30;100.00;102259.69;5909877;24;20834;-92
2023/01/26 10:34:21;;;;;;;10.50;4.83;;;;;;;10.39;100.00;102264.22;6001202;23;20487;-92
2023/01/26 10:36:50;;;;;;;11.53;4.80;;;;;;;10.37;100.00;102260.81;6074796;23;20402;-94
2023/01/26 10:39:27;;;;;;;10.43;4.63;;;;;;;10.49;100.00;102264.16;6051298;23;20793;-94
2023/01/26 10:42:02;;;;;;;9.10;4.40;;;;;;;10.41;99.77;102265.94;6050153;23;20402;-93
2023/01/26 10:44:34;;;;;;;9.60;4.63;;;;;;;10.38;100.00;102250.75;6073384;23;20908;-88
2023/01/26 10:47:14;;;;;;;11.80;4.50;;;;;;;10.54;100.00;102255.50;6027858;23;20409;-91
2023/01/26 10:50:24;;;;;;;9.90;4.23;;;;;;;10.67;99.87;102256.81;6027261;23;20399;-92
2023/01/26 10:53:04;;;;;;;8.87;4.03;;;;;;;10.81;98.74;102262.72;6074263;23;20561;-94
2023/01/26 10:55:37;;;;;;;11.53;5.20;;;;;;;10.85;98.73;102259.53;6050748;23;20434;-91
2023/01/26 10:58:05;;;;;;;9.63;5.07;;;;;;;10.97;98.48;102255.50;6074060;23;20494;-91
2023/01/26 11:00:35;;;;;;;12.23;4.53;;;;;;;11.00;98.20;102240.66;6028338;23;20407;-88
2023/01/26 11:03:21;;;;;;;8.53;4.13;;;;;;;10.97;97.83;102239.09;6050731;23;20413;-91
2023/01/26 11:06:11;;;;;;;14.40;4.10;;;;;;;11.06;98.17;102249.09;6051824;23;20387;-91
2023/01/26 11:08:39;;;;;;;16.50;4.30;;;;;;;11.00;97.60;102232.44;6074000;23;20395;-92
2023/01/26 11:11:26;;;;;;;8.23;4.33;;;;;;;11.13;97.59;102223.84;6027042;23;20458;-91
2023/01/26 11:14:16;;;;;;;9.03;4.10;;;;;;;11.21;97.64;102211.03;6052387;23;20388;-91
2023/01/26 11:17:14;;;;;;;8.90;3.60;;;;;;;11.25;97.04;102211.59;6027414;23;20391;-92
2023/01/26 11:19:55;;;;;;;7.07;3.80;;;;;;;11.39;96.96;102202.75;6063258;23;20414;-91
2023/01/26 11:22:42;;;;;;;7.77;3.80;;;;;;;11.55;96.42;102197.34;6074167;23;20410;-91
2023/01/26 11:25:48;;;;;;;6.40;3.07;;;;;;;11.80;95.77;102197.50;6073999;23;20426;-91
2023/01/26 11:28:39;;;;;;;7.63;3.33;;;;;;;12.01;95.17;102192.41;6027696;23;20407;-91
2023/01/26 11:31:22;;;;;;;12.60;3.80;;;;;;;12.26;94.48;102182.34;6073274;23;20443;-92
2023/01/26 11:34:04;;;;;;;6.70;3.20;;;;;;;12.39;92.89;102177.22;6073931;23;20438;-92
2023/01/26 11:36:34;;;;;;;30.00;11.13;;;;;;;12.59;93.47;102166.75;6074001;23;20881;-92
2023/01/26 11:39:15;;;;;;;24.97;12.00;;;;;;;12.75;91.49;102153.03;6098320;23;20422;-91
2023/01/26 11:42:00;;;;;;;11.00;4.30;;;;;;;12.72;91.40;102142.41;6073775;23;20395;-91
2023/01/26 11:44:46;;;;;;;6.10;2.23;;;;;;;12.80;91.30;102147.88;6050763;23;20407;-90
2023/01/26 11:47:32;;;;;;;6.10;3.27;;;;;;;12.92;91.48;102138.25;6073647;23;20401;-91
2023/01/26 11:50:35;;;;;;;8.53;2.73;;;;;;;12.93;91.51;102128.97;6098652;23;20486;-91
2023/01/26 11:53:30;;;;;;;11.93;2.70;;;;;;;12.94;90.87;102133.44;6076978;23;20441;-91
2023/01/26 11:56:02;;;;;;;7.53;3.00;;;;;;;12.90;91.47;102123.84;6074077;23;20391;-91
2023/01/26 11:58:54;;;;;;;5.57;2.13;;;;;;;12.83;92.24;102117.38;6073322;23;20415;-92
2023/01/26 12:01:36;;;;;;;9.60;2.63;;;;;;;12.72;92.21;102104.00;6073700;23;20391;-91
2023/01/26 12:04:17;;;;;;;6.70;2.30;;;;;;;12.68;92.84;102097.16;6029299;23;20466;-92
2023/01/26 12:06:46;;;;;;;10.30;2.53;;;;;;;12.64;93.71;102095.81;6049856;23;20443;-92
2023/01/26 12:09:21;;;;;;;6.67;2.20;;;;;;;12.73;94.09;102084.63;6026493;23;20885;-92
2023/01/26 12:11:54;;;;;;;9.47;2.37;;;;;;;12.83;94.03;102067.97;6049353;23;20441;-91
2023/01/26 12:14:30;;;;;;;6.80;2.30;;;;;;;12.79;93.82;102072.09;6098127;23;20391;-92
2023/01/26 12:17:35;;;;;;;6.33;2.30;;;;;;;12.78;94.20;102064.91;6026853;23;20955;-92
2023/01/26 12:20:23;;;;;;;15.10;4.90;;;;;;;12.79;94.87;102063.88;6029722;23;20383;-91
2023/01/26 12:23:02;;;;;;;9.90;3.90;;;;;;;12.74;95.13;102058.91;6073469;23;20410;-91
2023/01/26 12:25:48;;;;;;;11.97;3.70;;;;;;;12.75;95.30;102041.41;6073312;23;20391;-91
2023/01/26 12:28:39;;;;;;;9.10;3.30;;;;;;;12.74;95.20;102025.13;6073433;23;20387;-91
2023/01/26 12:31:15;;;;;;;9.80;3.43;;;;;;;12.79;95.55;102030.94;6028017;23;20395;-91
2023/01/26 12:33:52;;;;;;;7.77;3.00;;;;;;;12.74;95.74;102020.50;6050318;23;20410;-92
2023/01/26 12:36:31;;;;;;;12.83;4.47;;;;;;;12.82;96.29;102011.38;6026312;23;20414;-91
2023/01/26 12:39:15;;;;;;;9.40;3.77;;;;;;;12.95;95.62;101988.84;6073271;23;20387;-91
2023/01/26 12:42:08;;;;;;;6.00;3.00;;;;;;;13.27;95.83;101982.38;6073056;23;20407;-91
2023/01/26 12:45:00;;;;;;;7.23;2.80;;;;;;;13.70;94.88;101965.22;6073619;23;20775;-92
2023/01/26 12:47:31;;;;;;;11.93;2.90;;;;;;;13.94;92.30;101960.56;6073644;23;20406;-92
2023/01/26 12:50:39;;;;;;;7.90;3.23;;;;;;;14.21;90.94;101959.94;6028138;23;20442;-91
2023/01/26 12:53:30;;;;;;;10.27;3.00;;;;;;;14.35;88.57;101955.50;6073476;23;20434;-92
2023/01/26 12:56:18;;;;;;;6.80;3.00;;;;;;;14.50;87.46;101926.97;6027480;23;20387;-92
2023/01/26 12:58:49;;;;;;;10.70;2.67;;;;;;;14.63;87.07;101909.78;6073058;23;20455;-92
2023/01/26 13:01:19;;;;;;;8.63;2.60;;;;;;;14.50;86.30;101904.97;6073325;23;20445;-92
2023/01/26 13:04:07;;;;;;;9.77;2.70;;;;;;;14.23;86.71;101913.88;6026876;23;20443;-92
2023/01/26 13:06:35;;;;;;;9.07;3.40;;;;;;;14.18;87.02;101903.44;6026784;23;21451;-92
2023/01/26 13:09:15;;;;;;;8.90;2.50;;;;;;;14.22;85.48;101906.66;6049925;23;20471;-91
2023/01/26 13:11:57;;;;;;;10.30;2.93;;;;;;;14.18;84.20;101897.09;6073231;23;20438;-91
2023/01/26 13:14:36;;;;;;;10.63;2.63;;;;;;;14.23;83.92;101891.88;6026665;23;20395;-91
2023/01/26 13:17:14;;;;;;;10.03;2.53;;;;;;;14.52;84.50;101891.88;6027947;23;20470;-91
2023/01/26 13:19:41;;;;;;;7.40;2.83;;;;;;;14.63;85.31;101868.50;6072564;23;20414;-91
2023/01/26 13:22:22;;;;;;;13.27;3.33;;;;;;;14.56;86.66;101875.84;6073264;23;20443;-91
2023/01/26 13:25:26;;;;;;;8.37;2.63;;;;;;;14.59;86.79;101866.34;6073276;23;20705;-91
2023/01/26 13:27:55;;;;;;;5.93;2.73;;;;;;;14.55;86.83;101862.28;6053515;23;20402;-91
2023/01/26 13:30:23;;;;;;;17.20;2.93;;;;;;;14.41;86.12;101867.63;6072514;23;20407;-91